KLWS/LWS METAR and TAF weather

Enter ICAO airport designator
Station Type Date Time Source
KLWS METAR 2019/12/10 03:04 UTC NOAA

KLWS 100304Z 00000KT 1 1/4SM BR OVC002 M01/M02 A3028 RMK AO2 T10061017


Station Type Date Time Source
KLWS Decoded METAR 2019/12/10 03:04 UTC NOAA

LEWISTON NEZ PERCE CO AIRPORT , ID, United States (KLWS) 46-22N 117-01W 438M
Dec 09, 2019 - 10:04 PM EST / 2019.12.10 0304 UTC
Wind: Calm:0
Visibility: 1 1/4 mile(s):0
Sky conditions: overcast
Weather: mist
Temperature: 30.9 F (-0.6 C)
Dew Point: 28.9 F (-1.7 C)
Relative Humidity: 92%
Pressure (altimeter): 30.28 in. Hg (1025 hPa)
ob: KLWS 100304Z 00000KT 1 1/4SM BR OVC002 M01/M02 A3028 RMK AO2 T10061017
cycle: 3

Station Type Date Time Source
KLWS TAF 2019/12/10 03:12 UTC NOAA

TAF KLWS 100309Z 1003/1024 15003KT 3SM BR OVC002
TEMPO 1003/1006 1SM BR OVC002
FM100600 13003KT 1/2SM FG OVC002
FM101800 10004KT 4SM BR OVC004
FM102200 10004KT 4SM BR SCT004 OVC015

Example: see airport list